Weather at Burdisso Airport

Public forecast

Using degrees Celsius for public forecast. Weather courtesy of forecast.io.

Closest aviation weather report (METAR) to Burdisso Airport

Closest report is Rosario Islas Malvinas International Airport, 63.3 nm (117.3 km) SE.

2024/07/21 06:00 (retrieved 40 minutes ago)

SAAR 210600Z 20006KT 5000 -DZ BR OVC002 10/09 Q1019

Closest aviation forecast (TAF) to Burdisso Airport

Closest forecast is Rosario Islas Malvinas International Airport, 63.3 nm (117.3 km) SE.

2024/07/21 06:00 (retrieved 40 minutes ago)

TAF SAAR 210500Z 2106/2206 20005KT 5000 DZ BR OVC002 TX16/2118Z TN08/2111Z TEMPO 2108/2111 0800 FG DZ OVC001 BECMG 2112/2114 16005KT 9999 BKN020